Time;durP1;ratioP1;P1;durP2;ratioP2;P2;SDS_P1;SDS_P2;PMS_P1;PMS_P2;Temp;Humidity;BMP_temperature;BMP_pressure;BME280_temperature;BME280_humidity;BME280_pressure;Samples;Min_cycle;Max_cycle;Signal;HPM_P1;HPM_P2
2023/11/18 00:02:00;;;;;;;0.00;0.00;;;21.70;45.30;;;;;;5090994;28;20194;-49
2023/11/18 00:04:32;;;;;;;0.10;0.10;;;21.70;45.20;;;;;;5091367;28;20182;-52
2023/11/18 00:07:03;;;;;;;0.00;0.00;;;21.80;45.20;;;;;;5091756;28;20197;-51
2023/11/18 00:09:34;;;;;;;0.00;0.00;;;21.80;45.20;;;;;;5091836;28;20243;-51
2023/11/18 00:12:42;;;;;;;0.00;0.00;;;21.80;45.20;;;;;;5077892;28;20202;-52
2023/11/18 00:15:13;;;;;;;0.00;0.00;;;21.80;45.10;;;;;;5071278;28;20222;-57
2023/11/18 00:17:43;;;;;;;0.10;0.10;;;21.80;45.10;;;;;;5070830;28;20245;-52
2023/11/18 00:20:16;;;;;;;0.10;0.10;;;21.80;45.10;;;;;;5071765;28;20209;-52
2023/11/18 00:22:47;;;;;;;0.10;0.10;;;21.80;45.10;;;;;;5071285;28;20237;-55
2023/11/18 00:25:17;;;;;;;0.00;0.00;;;21.80;45.10;;;;;;5071682;28;20210;-52
2023/11/18 00:27:48;;;;;;;0.00;0.00;;;21.90;45.70;;;;;;5073159;28;20223;-54
2023/11/18 00:30:19;;;;;;;0.00;0.00;;;21.90;45.10;;;;;;5089375;28;20688;-49
2023/11/18 00:32:50;;;;;;;0.00;0.00;;;21.90;45.10;;;;;;5095460;28;20190;-49
2023/11/18 00:35:22;;;;;;;0.00;0.00;;;21.90;45.10;;;;;;5095525;28;20693;-55
2023/11/18 00:37:53;;;;;;;0.00;0.00;;;22.00;45.10;;;;;;5095349;28;20220;-56
2023/11/18 00:40:23;;;;;;;0.00;0.00;;;22.00;45.10;;;;;;5095276;28;20190;-50
2023/11/18 00:42:57;;;;;;;0.10;0.10;;;22.00;45.00;;;;;;5095142;28;20297;-48
2023/11/18 00:45:28;;;;;;;0.00;0.00;;;22.00;45.00;;;;;;5095259;28;20615;-57
2023/11/18 00:47:59;;;;;;;0.00;0.00;;;22.00;45.00;;;;;;5095367;28;20622;-59
2023/11/18 00:50:33;;;;;;;0.00;0.00;;;22.00;45.00;;;;;;5095545;28;20558;-58
2023/11/18 00:53:05;;;;;;;0.00;0.00;;;22.10;44.90;;;;;;5095260;28;20194;-53
2023/11/18 00:55:36;;;;;;;0.00;0.00;;;22.10;44.90;;;;;;5095097;28;20229;-58
2023/11/18 00:58:06;;;;;;;0.10;0.10;;;22.10;44.90;;;;;;5094597;28;20229;-56
2023/11/18 01:00:37;;;;;;;0.00;0.00;;;22.10;44.90;;;;;;5095113;28;20233;-55
2023/11/18 01:03:10;;;;;;;0.00;0.00;;;22.10;44.90;;;;;;5095296;28;20194;-54
2023/11/18 01:05:42;;;;;;;0.00;0.00;;;22.10;44.90;;;;;;5094758;28;20201;-51
2023/11/18 01:08:13;;;;;;;0.00;0.00;;;22.10;44.90;;;;;;5094706;28;20389;-49
2023/11/18 01:10:44;;;;;;;0.10;0.10;;;22.10;44.90;;;;;;5092093;28;20198;-52
2023/11/18 01:13:14;;;;;;;0.00;0.00;;;22.10;44.90;;;;;;5074866;28;20206;-57
2023/11/18 01:15:45;;;;;;;0.00;0.00;;;22.20;44.90;;;;;;5075297;28;20219;-57
2023/11/18 01:18:22;;;;;;;0.05;0.05;;;22.20;44.90;;;;;;5074082;28;20215;-55
2023/11/18 01:20:58;;;;;;;0.00;0.00;;;22.20;44.90;;;;;;5074754;28;20204;-48
2023/11/18 01:23:29;;;;;;;0.00;0.00;;;22.20;45.00;;;;;;5074396;28;20210;-50
2023/11/18 01:26:01;;;;;;;0.00;0.00;;;22.20;44.90;;;;;;5074514;28;20206;-56
2023/11/18 01:28:36;;;;;;;0.00;0.00;;;22.20;44.90;;;;;;5073701;28;20214;-57
2023/11/18 01:31:09;;;;;;;0.00;0.00;;;22.20;44.90;;;;;;5073437;28;20198;-57
2023/11/18 01:33:40;;;;;;;0.00;0.00;;;22.30;44.90;;;;;;5073687;28;20199;-53
2023/11/18 01:36:13;;;;;;;0.00;0.00;;;22.30;44.90;;;;;;5073877;28;20256;-56
2023/11/18 01:38:44;;;;;;;0.00;0.00;;;22.30;44.90;;;;;;5072646;28;20211;-54
2023/11/18 01:41:14;;;;;;;0.10;0.10;;;22.30;44.90;;;;;;5074923;28;20622;-50
2023/11/18 01:43:48;;;;;;;0.00;0.00;;;22.30;44.80;;;;;;5074151;28;20202;-56
2023/11/18 01:46:23;;;;;;;0.00;0.00;;;22.30;44.80;;;;;;5073311;28;20553;-55
2023/11/18 01:48:54;;;;;;;0.10;0.10;;;22.30;44.80;;;;;;5073222;28;20222;-57
2023/11/18 01:51:53;;;;;;;0.00;0.00;;;22.30;44.80;;;;;;5073581;28;20431;-55
2023/11/18 01:54:25;;;;;;;0.00;0.00;;;22.30;44.80;;;;;;5091092;28;20648;-45
2023/11/18 01:56:57;;;;;;;0.00;0.00;;;22.40;44.80;;;;;;5075679;28;20328;-56
2023/11/18 01:59:29;;;;;;;0.00;0.00;;;22.40;44.80;;;;;;5073670;28;20654;-56
2023/11/18 02:02:01;;;;;;;0.03;0.03;;;22.40;44.90;;;;;;5073370;28;20225;-56
2023/11/18 02:04:32;;;;;;;0.00;0.00;;;22.40;44.80;;;;;;5073585;28;20198;-55
2023/11/18 02:07:08;;;;;;;0.00;0.00;;;22.40;44.90;;;;;;5073575;28;20206;-51
2023/11/18 02:09:40;;;;;;;0.10;0.10;;;22.50;44.90;;;;;;5073803;28;20198;-57
2023/11/18 02:12:20;;;;;;;0.10;0.10;;;22.40;44.90;;;;;;5073466;28;20199;-53
2023/11/18 02:14:53;;;;;;;0.00;0.00;;;22.50;44.90;;;;;;5073248;28;20626;-54
2023/11/18 02:17:25;;;;;;;0.00;0.00;;;22.50;44.90;;;;;;5073506;28;20280;-53
2023/11/18 02:19:58;;;;;;;0.00;0.00;;;22.50;44.80;;;;;;5074446;28;20615;-55
2023/11/18 02:22:31;;;;;;;0.10;0.10;;;22.50;44.80;;;;;;5073301;28;20199;-50
2023/11/18 02:25:09;;;;;;;0.00;0.00;;;22.50;44.80;;;;;;5073191;28;20213;-57
2023/11/18 02:27:42;;;;;;;0.00;0.00;;;22.60;44.80;;;;;;5072887;28;20305;-50
2023/11/18 02:30:16;;;;;;;0.00;0.00;;;22.60;44.80;;;;;;5072938;28;20206;-56
2023/11/18 02:32:53;;;;;;;0.00;0.00;;;22.60;44.80;;;;;;5072996;28;20230;-53
2023/11/18 02:35:28;;;;;;;0.00;0.00;;;22.60;44.80;;;;;;5089709;28;20294;-56
2023/11/18 02:38:00;;;;;;;0.00;0.00;;;22.60;44.80;;;;;;5093153;28;20217;-49
2023/11/18 02:40:35;;;;;;;0.00;0.00;;;22.60;44.80;;;;;;5092087;28;20642;-47
2023/11/18 02:43:09;;;;;;;0.00;0.00;;;22.60;44.80;;;;;;5072316;28;20198;-54
2023/11/18 02:45:41;;;;;;;0.00;0.00;;;22.60;44.80;;;;;;5072522;28;20606;-57
2023/11/18 02:48:14;;;;;;;0.00;0.00;;;22.60;44.80;;;;;;5072618;28;20210;-53
2023/11/18 02:50:45;;;;;;;0.00;0.00;;;22.70;44.80;;;;;;5072055;28;20261;-45
2023/11/18 02:53:17;;;;;;;0.00;0.00;;;22.70;44.80;;;;;;5077753;28;20194;-55
2023/11/18 02:55:48;;;;;;;0.00;0.00;;;22.70;44.80;;;;;;5092303;28;20689;-44
2023/11/18 02:58:20;;;;;;;0.00;0.00;;;22.70;44.80;;;;;;5092734;28;20249;-48
2023/11/18 03:00:51;;;;;;;0.05;0.05;;;22.70;44.80;;;;;;5092480;28;20585;-55
2023/11/18 03:03:22;;;;;;;0.10;0.10;;;22.70;44.80;;;;;;5092722;28;20558;-56
2023/11/18 03:05:52;;;;;;;0.00;0.00;;;22.80;44.80;;;;;;5092427;28;20548;-54
2023/11/18 03:08:23;;;;;;;0.00;0.00;;;22.80;44.80;;;;;;5092157;28;20210;-55
2023/11/18 03:10:54;;;;;;;0.00;0.00;;;22.90;44.80;;;;;;5088291;28;20294;-57
2023/11/18 03:13:30;;;;;;;0.00;0.00;;;22.90;44.80;;;;;;5072212;28;20191;-56
2023/11/18 03:16:00;;;;;;;0.00;0.00;;;22.90;44.70;;;;;;5072215;28;20240;-56
2023/11/18 03:18:31;;;;;;;0.00;0.00;;;22.90;44.70;;;;;;5072961;28;20219;-57
2023/11/18 03:21:02;;;;;;;0.00;0.00;;;22.90;44.70;;;;;;5073279;28;20198;-56
2023/11/18 03:23:32;;;;;;;0.00;0.00;;;22.90;44.70;;;;;;5071819;28;20642;-54
2023/11/18 03:26:03;;;;;;;0.10;0.10;;;22.90;44.70;;;;;;5072117;28;20379;-55
2023/11/18 03:28:36;;;;;;;0.10;0.10;;;22.90;44.70;;;;;;5072026;28;20226;-55
2023/11/18 03:31:07;;;;;;;0.00;0.00;;;22.90;44.70;;;;;;5072241;28;20666;-59
2023/11/18 03:33:38;;;;;;;0.00;0.00;;;23.00;44.80;;;;;;5071678;28;20643;-56
2023/11/18 03:36:11;;;;;;;0.00;0.00;;;23.00;44.80;;;;;;5071951;28;20229;-53
2023/11/18 03:38:42;;;;;;;0.00;0.00;;;23.00;44.70;;;;;;5071971;28;20217;-55
2023/11/18 03:41:13;;;;;;;0.00;0.00;;;23.00;44.80;;;;;;5072033;28;20203;-55
2023/11/18 03:43:47;;;;;;;0.10;0.10;;;23.00;44.70;;;;;;5071920;28;20642;-57
2023/11/18 03:46:18;;;;;;;0.05;0.05;;;23.00;44.70;;;;;;5071785;28;20198;-52
2023/11/18 03:48:49;;;;;;;0.00;0.00;;;23.10;44.80;;;;;;5076090;28;20214;-58
2023/11/18 03:51:19;;;;;;;0.00;0.00;;;23.10;44.70;;;;;;5072201;28;20199;-47
2023/11/18 03:53:50;;;;;;;0.10;0.10;;;23.10;44.70;;;;;;5071757;28;20210;-58
2023/11/18 03:56:21;;;;;;;0.00;0.00;;;23.20;44.70;;;;;;5072074;28;20222;-46
2023/11/18 03:58:54;;;;;;;0.00;0.00;;;23.10;44.60;;;;;;5074155;28;20685;-50
2023/11/18 04:01:26;;;;;;;0.00;0.00;;;23.10;44.60;;;;;;5070908;28;20684;-49
2023/11/18 04:03:57;;;;;;;0.00;0.00;;;23.10;44.60;;;;;;5070702;28;20238;-51
2023/11/18 04:06:28;;;;;;;0.00;0.00;;;23.20;44.50;;;;;;5070915;28;20202;-51
2023/11/18 04:08:58;;;;;;;0.00;0.00;;;23.20;44.50;;;;;;5070622;28;20214;-54
2023/11/18 04:11:29;;;;;;;0.00;0.00;;;23.20;44.50;;;;;;5071355;28;20591;-53
2023/11/18 04:14:03;;;;;;;0.00;0.00;;;23.20;44.60;;;;;;5071316;28;20677;-51
2023/11/18 04:16:34;;;;;;;0.00;0.00;;;23.20;44.50;;;;;;5071361;28;20222;-51
2023/11/18 04:19:05;;;;;;;0.00;0.00;;;23.20;44.60;;;;;;5071644;28;20686;-51
2023/11/18 04:21:35;;;;;;;0.00;0.00;;;23.20;44.60;;;;;;5071451;28;20590;-50
2023/11/18 04:24:07;;;;;;;0.00;0.00;;;23.20;44.60;;;;;;5090279;28;20197;-51
2023/11/18 04:26:37;;;;;;;0.10;0.10;;;23.20;44.60;;;;;;5085984;28;20218;-51
2023/11/18 04:29:10;;;;;;;0.00;0.00;;;23.20;44.60;;;;;;5086800;28;20296;-50
2023/11/18 04:31:41;;;;;;;0.00;0.00;;;23.30;44.70;;;;;;5085256;28;20673;-54
2023/11/18 04:34:11;;;;;;;0.10;0.10;;;23.30;44.70;;;;;;5084732;28;20198;-49
2023/11/18 04:36:43;;;;;;;0.00;0.00;;;23.30;44.70;;;;;;5085894;28;20226;-51
2023/11/18 04:39:15;;;;;;;0.00;0.00;;;23.30;45.30;;;;;;5084615;28;20222;-54
2023/11/18 04:41:46;;;;;;;0.00;0.00;;;23.30;44.60;;;;;;5079542;28;20187;-51
2023/11/18 04:44:18;;;;;;;0.00;0.00;;;23.30;44.60;;;;;;5069515;28;20538;-51
2023/11/18 04:46:49;;;;;;;0.00;0.00;;;23.30;44.60;;;;;;5070949;28;20191;-53
2023/11/18 04:49:20;;;;;;;0.00;0.00;;;23.30;44.60;;;;;;5077181;28;20190;-56
2023/11/18 04:51:50;;;;;;;0.00;0.00;;;23.40;44.60;;;;;;5070773;28;20687;-54
2023/11/18 04:54:21;;;;;;;0.03;0.03;;;23.40;44.60;;;;;;5086124;28;20469;-57
2023/11/18 04:56:52;;;;;;;0.00;0.00;;;23.40;44.60;;;;;;5070405;28;20254;-57
2023/11/18 04:59:24;;;;;;;0.00;0.00;;;23.40;44.60;;;;;;5078173;28;20248;-57
2023/11/18 05:01:55;;;;;;;0.00;0.00;;;23.40;44.60;;;;;;5090091;28;20225;-55
2023/11/18 05:04:25;;;;;;;0.00;0.00;;;23.40;44.60;;;;;;5086598;28;20183;-57
2023/11/18 05:06:56;;;;;;;0.00;0.00;;;23.40;44.50;;;;;;5070357;28;20198;-55
2023/11/18 05:09:27;;;;;;;0.00;0.00;;;23.40;44.50;;;;;;5074445;28;20598;-55
2023/11/18 05:12:00;;;;;;;0.00;0.00;;;23.40;44.50;;;;;;5077353;28;20600;-57
2023/11/18 05:14:33;;;;;;;0.00;0.00;;;23.50;44.50;;;;;;5075478;28;20658;-57
2023/11/18 05:17:04;;;;;;;0.00;0.00;;;23.50;44.50;;;;;;5093662;28;20261;-55
2023/11/18 05:19:35;;;;;;;0.00;0.00;;;23.50;44.50;;;;;;5094900;28;20222;-54
2023/11/18 05:22:06;;;;;;;0.00;0.00;;;23.50;44.50;;;;;;5093455;28;20198;-56
2023/11/18 05:24:36;;;;;;;0.00;0.00;;;23.50;44.40;;;;;;5085495;28;20591;-54
2023/11/18 05:27:07;;;;;;;0.00;0.00;;;23.50;44.40;;;;;;5093651;28;20194;-55
2023/11/18 05:29:41;;;;;;;0.03;0.03;;;23.50;44.30;;;;;;5089266;28;20651;-53
2023/11/18 05:32:12;;;;;;;0.10;0.10;;;23.50;44.30;;;;;;5074108;28;20202;-56
2023/11/18 05:34:42;;;;;;;0.00;0.00;;;23.50;44.30;;;;;;5078536;28;20190;-57
2023/11/18 05:37:13;;;;;;;0.00;0.00;;;23.50;44.20;;;;;;5093676;28;20233;-56
2023/11/18 05:39:45;;;;;;;0.00;0.00;;;23.50;44.30;;;;;;5093367;28;20245;-56
2023/11/18 05:42:16;;;;;;;0.00;0.00;;;23.50;44.20;;;;;;5092185;28;20277;-52
2023/11/18 05:44:49;;;;;;;0.00;0.00;;;23.50;44.30;;;;;;5092458;28;20186;-55
2023/11/18 05:47:19;;;;;;;0.08;0.08;;;23.50;44.30;;;;;;5093515;28;20786;-57
2023/11/18 05:49:50;;;;;;;0.00;0.00;;;23.50;44.30;;;;;;5081135;28;20197;-56
2023/11/18 05:52:22;;;;;;;0.00;0.00;;;23.50;44.30;;;;;;5092796;28;20194;-57
2023/11/18 05:54:52;;;;;;;0.00;0.00;;;23.50;44.20;;;;;;5093226;28;20197;-54
2023/11/18 05:57:23;;;;;;;0.05;0.05;;;23.50;44.30;;;;;;5087073;28;20230;-56
2023/11/18 05:59:56;;;;;;;0.03;0.03;;;23.50;44.30;;;;;;5093619;28;20233;-56
2023/11/18 06:02:26;;;;;;;0.00;0.00;;;23.50;44.30;;;;;;5092715;28;20186;-51
2023/11/18 06:04:57;;;;;;;0.00;0.00;;;23.50;44.30;;;;;;5088346;28;20187;-47
2023/11/18 06:07:27;;;;;;;0.00;0.00;;;23.50;44.30;;;;;;5073118;28;20245;-57
2023/11/18 06:09:59;;;;;;;0.00;0.00;;;23.50;44.30;;;;;;5079012;28;20534;-51
2023/11/18 06:12:30;;;;;;;0.05;0.05;;;23.50;44.30;;;;;;5076447;28;20207;-54
2023/11/18 06:15:03;;;;;;;0.00;0.00;;;23.50;44.30;;;;;;5073542;28;20282;-57
2023/11/18 06:17:34;;;;;;;0.00;0.00;;;23.60;44.40;;;;;;5072706;28;20234;-58
2023/11/18 06:20:06;;;;;;;0.00;0.00;;;23.50;44.30;;;;;;5078975;22;20219;-54
2023/11/18 06:22:36;;;;;;;0.00;0.00;;;23.50;44.30;;;;;;5053051;28;20605;-54
2023/11/18 06:25:08;;;;;;;0.00;0.00;;;23.50;44.30;;;;;;5051811;28;20191;-55
2023/11/18 06:27:39;;;;;;;0.00;0.00;;;23.50;44.20;;;;;;5050004;28;20251;-55
2023/11/18 06:30:13;;;;;;;0.00;0.00;;;23.60;44.30;;;;;;5052802;28;20195;-55
2023/11/18 06:32:43;;;;;;;0.00;0.00;;;23.50;44.20;;;;;;5053013;28;20587;-53
2023/11/18 06:35:14;;;;;;;0.00;0.00;;;23.60;44.20;;;;;;5035785;28;20667;-54
2023/11/18 06:37:45;;;;;;;0.00;0.00;;;23.60;44.20;;;;;;5032791;28;20281;-54
2023/11/18 06:40:21;;;;;;;0.00;0.00;;;23.50;44.20;;;;;;5033003;28;20200;-53
2023/11/18 06:42:54;;;;;;;0.10;0.10;;;23.50;44.20;;;;;;5033298;28;20218;-52
2023/11/18 06:45:27;;;;;;;0.00;0.00;;;23.50;44.20;;;;;;5032947;28;20196;-54
2023/11/18 06:47:58;;;;;;;0.00;0.00;;;23.50;44.10;;;;;;5032091;28;20696;-56
2023/11/18 06:50:29;;;;;;;0.00;0.00;;;23.50;44.10;;;;;;5032693;28;20676;-46
2023/11/18 06:53:00;;;;;;;0.00;0.00;;;23.50;44.10;;;;;;5032938;28;20230;-54
2023/11/18 06:55:31;;;;;;;0.00;0.00;;;23.50;44.10;;;;;;5032788;28;20220;-49
2023/11/18 06:58:02;;;;;;;0.00;0.00;;;23.50;44.10;;;;;;5032565;28;20274;-52
2023/11/18 07:00:35;;;;;;;0.00;0.00;;;23.50;44.20;;;;;;5032876;28;20660;-51
2023/11/18 07:03:06;;;;;;;0.00;0.00;;;23.50;44.10;;;;;;5031904;28;20201;-54
2023/11/18 07:05:36;;;;;;;0.00;0.00;;;23.40;44.10;;;;;;5032100;28;20200;-52
2023/11/18 07:08:08;;;;;;;0.00;0.00;;;23.50;44.20;;;;;;5050588;28;20679;-52
2023/11/18 07:10:39;;;;;;;0.00;0.00;;;23.40;44.10;;;;;;5052354;28;20199;-49
2023/11/18 07:13:10;;;;;;;0.10;0.10;;;23.40;44.10;;;;;;5052263;28;20722;-51
2023/11/18 07:15:43;;;;;;;0.00;0.00;;;23.40;44.10;;;;;;5051838;28;20278;-50
2023/11/18 07:18:14;;;;;;;0.00;0.00;;;23.40;44.10;;;;;;5051267;28;20251;-52
2023/11/18 07:20:45;;;;;;;0.00;0.00;;;23.40;44.10;;;;;;5078816;23;20590;-46
2023/11/18 07:23:17;;;;;;;0.00;0.00;;;23.40;44.10;;;;;;5071309;28;20221;-54
2023/11/18 07:25:48;;;;;;;0.00;0.00;;;23.40;44.10;;;;;;5071971;28;20255;-51
2023/11/18 07:28:19;;;;;;;0.00;0.00;;;23.30;44.10;;;;;;5070218;28;20211;-44
2023/11/18 07:30:52;;;;;;;0.10;0.10;;;23.30;44.20;;;;;;5071486;28;20208;-57
2023/11/18 07:33:23;;;;;;;0.00;0.00;;;23.30;44.20;;;;;;5071272;28;20191;-58
2023/11/18 07:35:54;;;;;;;0.00;0.00;;;23.30;44.20;;;;;;5071442;28;20581;-56
2023/11/18 07:38:27;;;;;;;0.00;0.00;;;23.30;44.20;;;;;;5070901;28;20222;-45
2023/11/18 07:40:58;;;;;;;0.00;0.00;;;23.30;44.20;;;;;;5061133;28;20195;-44
2023/11/18 07:43:29;;;;;;;0.00;0.00;;;23.30;44.30;;;;;;5071752;28;20195;-52
2023/11/18 07:46:02;;;;;;;0.00;0.00;;;23.20;44.20;;;;;;5054048;28;20203;-56
2023/11/18 07:48:32;;;;;;;0.00;0.00;;;23.20;44.20;;;;;;5051427;28;20302;-58
2023/11/18 07:51:03;;;;;;;0.10;0.10;;;23.20;44.20;;;;;;5052134;28;20256;-57
2023/11/18 07:53:36;;;;;;;0.00;0.00;;;23.20;44.20;;;;;;5051758;28;20242;-58
2023/11/18 07:56:07;;;;;;;0.00;0.00;;;23.20;44.20;;;;;;5051325;28;20314;-57
2023/11/18 07:58:38;;;;;;;0.00;0.00;;;23.20;44.20;;;;;;5053135;28;20268;-57
2023/11/18 08:01:11;;;;;;;0.03;0.03;;;23.20;44.20;;;;;;5050753;28;20686;-47
2023/11/18 08:03:42;;;;;;;0.00;0.00;;;23.10;44.20;;;;;;5051764;28;20282;-55
2023/11/18 08:06:14;;;;;;;0.03;0.03;;;23.10;44.20;;;;;;5051588;28;20196;-58
2023/11/18 08:08:45;;;;;;;0.00;0.00;;;23.10;44.20;;;;;;5051195;28;20215;-55
2023/11/18 08:11:17;;;;;;;0.00;0.00;;;23.10;44.20;;;;;;5058387;28;20562;-52
2023/11/18 08:13:47;;;;;;;0.00;0.00;;;23.10;44.20;;;;;;5071354;28;20201;-50
2023/11/18 08:16:20;;;;;;;0.00;0.00;;;23.00;44.10;;;;;;5070230;28;20693;-57
2023/11/18 08:18:52;;;;;;;0.00;0.00;;;23.00;44.10;;;;;;5071336;28;20218;-56
2023/11/18 08:21:24;;;;;;;0.00;0.00;;;23.00;44.10;;;;;;5071000;28;20198;-57
2023/11/18 08:23:55;;;;;;;0.00;0.00;;;23.00;44.10;;;;;;5061216;28;20609;-46
2023/11/18 08:26:26;;;;;;;0.00;0.00;;;23.00;44.10;;;;;;5051155;28;20203;-46
2023/11/18 08:28:57;;;;;;;0.00;0.00;;;23.00;44.20;;;;;;5053245;28;20226;-44
2023/11/18 08:31:30;;;;;;;0.00;0.00;;;23.00;44.20;;;;;;5061854;28;20651;-47
2023/11/18 08:34:01;;;;;;;0.00;0.00;;;23.00;44.20;;;;;;5060925;28;20241;-49
2023/11/18 08:36:33;;;;;;;0.00;0.00;;;23.00;44.30;;;;;;5070424;28;20222;-42
2023/11/18 08:39:04;;;;;;;0.00;0.00;;;22.90;44.20;;;;;;5059286;28;20269;-44
2023/11/18 08:41:35;;;;;;;0.00;0.00;;;22.90;44.20;;;;;;5059603;28;20195;-43
2023/11/18 08:44:06;;;;;;;0.00;0.00;;;22.90;44.20;;;;;;5059611;28;20196;-43
2023/11/18 08:46:38;;;;;;;0.00;0.00;;;22.90;44.20;;;;;;5049022;28;20192;-47
2023/11/18 08:49:11;;;;;;;0.00;0.00;;;22.90;44.20;;;;;;5052811;28;20211;-50
2023/11/18 08:51:41;;;;;;;0.10;0.10;;;22.80;44.20;;;;;;5054621;28;20198;-50
2023/11/18 08:54:22;;;;;;;0.00;0.00;;;22.80;44.20;;;;;;5053988;28;20234;-53
2023/11/18 08:56:54;;;;;;;0.00;0.00;;;22.80;44.20;;;;;;5060694;28;20297;-50
2023/11/18 08:59:26;;;;;;;0.00;0.00;;;22.80;44.80;;;;;;5062761;28;20242;-49
2023/11/18 09:01:59;;;;;;;0.00;0.00;;;22.70;44.10;;;;;;5054127;28;20229;-50
2023/11/18 09:04:30;;;;;;;0.03;0.03;;;22.70;44.10;;;;;;5054017;28;20624;-52
2023/11/18 09:07:01;;;;;;;0.00;0.00;;;22.70;44.00;;;;;;5054005;28;20215;-49
2023/11/18 09:09:33;;;;;;;0.00;0.00;;;22.70;44.00;;;;;;5063161;28;20659;-53
2023/11/18 09:12:04;;;;;;;0.00;0.00;;;22.70;44.00;;;;;;5068035;28;20214;-52
2023/11/18 09:14:35;;;;;;;0.00;0.00;;;22.70;44.00;;;;;;5074012;28;20233;-51
2023/11/18 09:17:07;;;;;;;0.00;0.00;;;22.60;44.00;;;;;;5072831;28;20231;-52
2023/11/18 09:19:38;;;;;;;0.00;0.00;;;22.60;44.00;;;;;;5074017;28;20202;-52
2023/11/18 09:22:13;;;;;;;0.10;0.10;;;22.60;44.10;;;;;;5073110;28;20187;-51
2023/11/18 09:24:44;;;;;;;0.00;0.00;;;22.60;44.10;;;;;;5060970;28;20227;-52
2023/11/18 09:27:15;;;;;;;0.00;0.00;;;22.50;44.10;;;;;;5053553;28;20223;-51
2023/11/18 09:29:45;;;;;;;0.00;0.00;;;22.50;44.10;;;;;;5053288;28;20214;-51
2023/11/18 09:32:18;;;;;;;0.00;0.00;;;22.50;44.10;;;;;;5059993;28;20642;-47
2023/11/18 09:34:49;;;;;;;0.00;0.00;;;22.50;44.10;;;;;;5066237;28;20299;-48
2023/11/18 09:37:20;;;;;;;0.00;0.00;;;22.50;44.10;;;;;;5070973;28;20222;-57
2023/11/18 09:39:52;;;;;;;0.00;0.00;;;22.50;44.10;;;;;;5059436;28;20231;-53
2023/11/18 09:42:24;;;;;;;0.00;0.00;;;22.40;44.10;;;;;;5069462;28;20229;-52
2023/11/18 09:44:55;;;;;;;0.00;0.00;;;22.50;44.30;;;;;;5057266;28;20279;-52
2023/11/18 09:47:29;;;;;;;0.00;0.00;;;22.40;44.10;;;;;;5062346;28;20218;-55
2023/11/18 09:50:02;;;;;;;0.00;0.00;;;22.40;44.00;;;;;;5059263;28;20196;-57
2023/11/18 09:52:36;;;;;;;0.10;0.10;;;22.40;44.10;;;;;;5053844;28;20655;-50
2023/11/18 09:55:14;;;;;;;0.00;0.00;;;22.40;44.10;;;;;;5053344;28;20207;-57
2023/11/18 09:57:57;;;;;;;0.00;0.00;;;22.30;44.00;;;;;;5053854;28;20229;-51
2023/11/18 10:00:32;;;;;;;0.00;0.00;;;22.30;44.00;;;;;;5061551;28;20572;-58
2023/11/18 10:03:08;;;;;;;0.00;0.00;;;22.30;44.00;;;;;;5069214;28;20546;-58
2023/11/18 10:05:39;;;;;;;0.00;0.00;;;22.20;44.00;;;;;;5054282;28;20199;-54
2023/11/18 10:08:09;;;;;;;0.00;0.00;;;22.20;44.00;;;;;;5053050;28;20435;-56
2023/11/18 10:10:45;;;;;;;0.00;0.00;;;22.20;44.10;;;;;;5055260;28;20253;-54
2023/11/18 10:13:23;;;;;;;0.00;0.00;;;22.20;44.10;;;;;;5072222;28;20202;-51
2023/11/18 10:15:54;;;;;;;0.00;0.00;;;22.20;44.10;;;;;;5071371;28;20711;-50
2023/11/18 10:18:28;;;;;;;0.00;0.00;;;22.20;44.70;;;;;;5071739;28;20253;-55
2023/11/18 10:20:59;;;;;;;0.00;0.00;;;22.10;44.10;;;;;;5052997;28;20218;-54
2023/11/18 10:23:33;;;;;;;0.00;0.00;;;22.10;44.10;;;;;;5058289;28;20588;-56
2023/11/18 10:26:04;;;;;;;0.00;0.00;;;22.10;44.10;;;;;;5061778;28;20651;-56
2023/11/18 10:28:37;;;;;;;0.00;0.00;;;22.10;44.30;;;;;;5072611;28;20302;-49
2023/11/18 10:31:09;;;;;;;0.00;0.00;;;22.10;44.40;;;;;;5052839;28;20195;-57
2023/11/18 10:33:42;;;;;;;0.00;0.00;;;22.10;44.40;;;;;;5055658;28;20196;-58
2023/11/18 10:36:24;;;;;;;0.10;0.10;;;22.10;44.50;;;;;;5072812;28;20276;-51
2023/11/18 10:38:55;;;;;;;0.10;0.05;;;22.10;44.50;;;;;;5069680;28;20234;-57
2023/11/18 10:41:26;;;;;;;0.00;0.00;;;22.00;44.40;;;;;;5061052;28;20597;-57
2023/11/18 10:44:09;;;;;;;0.00;0.00;;;22.00;44.50;;;;;;5071966;28;20203;-57
2023/11/18 10:46:40;;;;;;;0.00;0.00;;;22.00;44.50;;;;;;5071803;28;20206;-57
2023/11/18 10:49:13;;;;;;;0.00;0.00;;;22.00;44.50;;;;;;5071701;28;20245;-56
2023/11/18 10:51:43;;;;;;;0.00;0.00;;;22.00;44.60;;;;;;5070975;28;20202;-57
2023/11/18 10:54:17;;;;;;;0.00;0.00;;;22.00;44.60;;;;;;5067796;28;20270;-57
2023/11/18 10:56:53;;;;;;;0.00;0.00;;;21.90;44.70;;;;;;5052397;28;20211;-56
2023/11/18 10:59:26;;;;;;;0.00;0.00;;;21.90;44.70;;;;;;5052109;28;20677;-56
2023/11/18 11:01:57;;;;;;;0.00;0.00;;;21.90;44.70;;;;;;5070918;28;20198;-51
2023/11/18 11:04:45;;;;;;;0.00;0.00;;;21.90;44.80;;;;;;5065782;28;20188;-54
2023/11/18 11:07:19;;;;;;;0.00;0.00;;;21.90;44.80;;;;;;5052835;28;20229;-58
2023/11/18 11:09:56;;;;;;;0.10;0.10;;;21.90;44.90;;;;;;5051368;28;20218;-53
2023/11/18 11:12:29;;;;;;;0.00;0.00;;;21.80;44.80;;;;;;5065435;28;20199;-57
2023/11/18 11:15:04;;;;;;;0.10;0.10;;;21.80;44.90;;;;;;5060369;28;20195;-55
2023/11/18 11:17:37;;;;;;;0.00;0.00;;;21.80;44.90;;;;;;5070238;28;20314;-49
2023/11/18 11:20:17;;;;;;;0.00;0.00;;;21.80;44.90;;;;;;5061417;28;20242;-56
2023/11/18 11:23:00;;;;;;;0.00;0.00;;;21.80;45.00;;;;;;5057538;28;20202;-55
2023/11/18 11:25:37;;;;;;;0.00;0.00;;;21.80;45.10;;;;;;5071512;28;20724;-51
2023/11/18 11:28:14;;;;;;;0.00;0.00;;;21.70;45.20;;;;;;5072170;28;20222;-58
2023/11/18 11:30:48;;;;;;;0.00;0.00;;;21.70;45.30;;;;;;5071895;28;20190;-51
2023/11/18 11:33:27;;;;;;;0.00;0.00;;;21.70;45.30;;;;;;5068624;28;20187;-56
2023/11/18 11:36:05;;;;;;;0.00;0.00;;;21.70;45.30;;;;;;5051550;28;20199;-55
2023/11/18 11:38:36;;;;;;;0.00;0.00;;;21.70;45.30;;;;;;5052408;28;20272;-57
2023/11/18 11:41:08;;;;;;;0.10;0.10;;;21.70;45.30;;;;;;5060277;28;20282;-56
2023/11/18 11:43:40;;;;;;;0.00;0.00;;;21.60;45.30;;;;;;5060447;28;20233;-57
2023/11/18 11:46:13;;;;;;;0.00;0.00;;;21.60;45.30;;;;;;5060505;28;20599;-54
2023/11/18 11:48:47;;;;;;;0.00;0.00;;;21.60;45.40;;;;;;5060110;28;20583;-57
2023/11/18 11:51:27;;;;;;;0.00;0.00;;;21.60;45.30;;;;;;5061601;28;20190;-55
2023/11/18 11:54:14;;;;;;;0.00;0.00;;;21.60;45.30;;;;;;5062730;28;20187;-58
2023/11/18 11:56:46;;;;;;;0.00;0.00;;;21.50;45.20;;;;;;5062327;28;20195;-57
2023/11/18 11:59:21;;;;;;;0.10;0.10;;;21.50;45.30;;;;;;5061662;28;20219;-56
2023/11/18 12:01:52;;;;;;;0.00;0.00;;;21.50;45.30;;;;;;5060943;28;20683;-54
2023/11/18 12:04:28;;;;;;;0.10;0.10;;;21.50;45.20;;;;;;5060046;28;20675;-57
2023/11/18 12:07:03;;;;;;;0.00;0.00;;;21.50;45.20;;;;;;5059359;28;20647;-55
2023/11/18 12:09:37;;;;;;;0.00;0.00;;;21.40;45.20;;;;;;5061097;28;20232;-57
2023/11/18 12:12:19;;;;;;;0.03;0.03;;;21.40;45.20;;;;;;5061396;28;20194;-57
2023/11/18 12:15:11;;;;;;;0.00;0.00;;;21.40;45.20;;;;;;5060011;28;20264;-59
2023/11/18 12:18:17;;;;;;;0.00;0.00;;;21.40;45.20;;;;;;5059115;28;20234;-56
2023/11/18 12:20:53;;;;;;;0.08;0.08;;;21.40;45.20;;;;;;5056423;28;20196;-58
2023/11/18 12:23:26;;;;;;;0.00;0.00;;;21.30;45.10;;;;;;5059730;28;20187;-57
2023/11/18 12:25:57;;;;;;;0.00;0.00;;;21.30;45.10;;;;;;5060904;28;20673;-57
2023/11/18 12:28:34;;;;;;;0.00;0.00;;;21.30;45.10;;;;;;5060669;28;20207;-57
2023/11/18 12:31:16;;;;;;;0.00;0.00;;;21.20;45.10;;;;;;5061771;28;20193;-54
2023/11/18 12:34:08;;;;;;;0.00;0.00;;;21.20;45.10;;;;;;5050844;28;20195;-55
2023/11/18 12:37:07;;;;;;;0.00;0.00;;;21.20;45.10;;;;;;5051081;28;20291;-57
2023/11/18 12:40:17;;;;;;;0.00;0.00;;;21.20;45.10;;;;;;5051121;28;20224;-55
2023/11/18 12:43:11;;;;;;;0.00;0.00;;;21.20;45.10;;;;;;5070927;28;20208;-55
2023/11/18 12:46:14;;;;;;;0.00;0.00;;;21.10;45.10;;;;;;5068563;28;20191;-56
2023/11/18 12:48:48;;;;;;;0.00;0.00;;;21.10;45.10;;;;;;5071169;28;20646;-56
2023/11/18 12:51:21;;;;;;;0.00;0.00;;;21.10;45.10;;;;;;5070920;28;20755;-55
2023/11/18 12:53:55;;;;;;;0.00;0.00;;;21.10;45.10;;;;;;5070636;28;20242;-56
2023/11/18 12:56:28;;;;;;;0.00;0.00;;;21.00;45.10;;;;;;5070430;28;20205;-50
2023/11/18 12:58:59;;;;;;;0.08;0.08;;;21.00;45.10;;;;;;5070353;28;20266;-55
2023/11/18 13:01:33;;;;;;;0.00;0.00;;;21.00;45.10;;;;;;5071064;28;20203;-44
2023/11/18 13:04:04;;;;;;;0.00;0.00;;;21.00;45.10;;;;;;5070875;28;20285;-44
2023/11/18 13:06:34;;;;;;;0.00;0.00;;;21.00;45.10;;;;;;5053522;28;20195;-43
2023/11/18 13:09:09;;;;;;;0.00;0.00;;;21.00;45.10;;;;;;5051151;28;20219;-46
2023/11/18 13:11:42;;;;;;;0.00;0.00;;;20.90;45.00;;;;;;5061237;28;20261;-43
2023/11/18 13:14:13;;;;;;;0.10;0.10;;;20.90;45.00;;;;;;5070857;28;20634;-48
2023/11/18 13:16:45;;;;;;;0.00;0.00;;;20.90;45.00;;;;;;5070694;28;20191;-48
2023/11/18 13:19:28;;;;;;;0.00;0.00;;;20.90;45.00;;;;;;5071127;28;20284;-45